createdAt,value
2022-11-28T00:01:50.661Z,6.20
2022-11-28T00:07:55.733Z,9.30
2022-11-28T00:13:59.179Z,6.05
2022-11-28T00:20:02.583Z,6.70
2022-11-28T00:26:08.641Z,4.47
2022-11-28T00:32:12.287Z,5.13
2022-11-28T00:38:15.713Z,8.30
2022-11-28T00:44:20.866Z,9.20
2022-11-28T00:50:24.421Z,8.52
2022-11-28T00:56:29.619Z,7.60
2022-11-28T01:02:34.652Z,8.10
2022-11-28T01:08:38.265Z,8.38
2022-11-28T01:14:41.993Z,8.85
2022-11-28T01:20:46.971Z,8.98
2022-11-28T01:26:50.399Z,8.20
2022-11-28T01:32:53.791Z,9.10
2022-11-28T01:38:58.574Z,9.95
2022-11-28T01:45:10.117Z,14.23
2022-11-28T01:51:13.981Z,11.93
2022-11-28T01:57:20.362Z,12.98
2022-11-28T02:03:26.755Z,12.10
2022-11-28T02:09:30.445Z,12.45
2022-11-28T02:15:44.010Z,13.15
2022-11-28T02:21:54.799Z,17.52
2022-11-28T02:28:26.250Z,15.82
2022-11-28T02:34:32.995Z,14.02
2022-11-28T02:40:39.805Z,15.20
2022-11-28T02:46:46.038Z,13.63
2022-11-28T02:52:52.268Z,14.02
2022-11-28T02:58:55.622Z,16.20
2022-11-28T03:05:01.167Z,17.02
2022-11-28T03:11:08.306Z,14.93
2022-11-28T03:17:15.197Z,15.00
2022-11-28T03:23:21.634Z,14.70
2022-11-28T03:29:29.915Z,15.82
2022-11-28T03:35:35.454Z,13.43
2022-11-28T03:41:40.514Z,12.80
2022-11-28T03:47:46.453Z,12.52
2022-11-28T03:53:53.232Z,13.40
2022-11-28T03:59:57.129Z,11.70
2022-11-28T04:06:04.539Z,12.25
2022-11-28T04:12:11.638Z,15.10
2022-11-28T04:18:27.281Z,10.55
2022-11-28T04:24:33.804Z,10.52
2022-11-28T04:30:38.252Z,10.63
2022-11-28T04:36:44.289Z,8.63
2022-11-28T04:42:53.034Z,9.35
2022-11-28T04:48:56.593Z,9.60
2022-11-28T04:55:02.533Z,8.90
2022-11-28T05:01:09.621Z,10.25
2022-11-28T05:07:13.095Z,8.05
2022-11-28T05:13:17.062Z,9.43
2022-11-28T05:19:22.338Z,13.77
2022-11-28T05:25:25.813Z,8.95
2022-11-28T05:31:29.804Z,9.48
2022-11-28T05:37:34.567Z,8.48
2022-11-28T05:43:37.991Z,10.70
2022-11-28T05:49:41.912Z,15.13
2022-11-28T05:55:47.101Z,20.83
2022-11-28T06:01:50.472Z,22.48
2022-11-28T06:07:53.989Z,15.05
2022-11-28T06:13:58.759Z,15.98
2022-11-28T06:20:02.113Z,16.63
2022-11-28T06:26:06.461Z,14.23
2022-11-28T06:32:11.513Z,9.40
2022-11-28T06:38:14.895Z,11.07
2022-11-28T06:44:18.891Z,11.68
2022-11-28T06:50:23.611Z,8.63
2022-11-28T06:56:27.221Z,8.00
2022-11-28T07:02:30.715Z,7.03
2022-11-28T07:08:35.739Z,6.80
2022-11-28T07:14:39.527Z,9.85
2022-11-28T07:20:42.913Z,8.02
2022-11-28T07:26:48.012Z,10.70
2022-11-28T07:32:51.361Z,10.25
2022-11-28T07:38:55.619Z,6.88
2022-11-28T07:45:00.411Z,8.48
2022-11-28T07:51:06.978Z,8.00
2022-11-28T07:57:12.650Z,8.13
2022-11-28T08:03:18.220Z,14.07
2022-11-28T08:09:21.573Z,8.60
2022-11-28T08:15:24.916Z,9.73
2022-11-28T08:21:30.215Z,11.27
2022-11-28T08:27:33.976Z,8.95
2022-11-28T08:33:37.634Z,9.50
2022-11-28T08:39:42.556Z,12.20
2022-11-28T08:45:46.691Z,13.48
2022-11-28T08:51:50.218Z,11.32
2022-11-28T08:57:55.109Z,8.85
2022-11-28T09:03:58.710Z,13.60
2022-11-28T09:10:02.356Z,13.30
2022-11-28T09:16:07.714Z,13.65
2022-11-28T09:22:11.064Z,18.10
2022-11-28T09:28:14.458Z,16.17
2022-11-28T09:34:19.203Z,13.63
2022-11-28T09:40:27.367Z,16.52
2022-11-28T09:46:34.237Z,20.05
2022-11-28T09:52:42.126Z,19.55
2022-11-28T09:58:49.691Z,23.75
2022-11-28T10:04:56.107Z,24.42
2022-11-28T10:11:03.777Z,25.10
2022-11-28T10:17:13.784Z,38.63
2022-11-28T10:23:20.081Z,30.83
2022-11-28T10:29:27.263Z,26.00
2022-11-28T10:35:35.105Z,26.73
2022-11-28T10:41:40.453Z,20.90
2022-11-28T10:48:07.499Z,26.90
2022-11-28T10:54:27.768Z,24.77
2022-11-28T11:00:45.303Z,30.00
2022-11-28T11:07:08.812Z,18.77
2022-11-28T11:13:15.459Z,27.15
2022-11-28T11:19:27.379Z,26.60
2022-11-28T11:25:31.338Z,21.38
2022-11-28T11:31:40.461Z,23.23
2022-11-28T11:37:45.250Z,26.27
2022-11-28T11:43:48.588Z,27.05
2022-11-28T11:49:52.202Z,21.98
2022-11-28T11:55:57.705Z,19.98
2022-11-28T12:02:02.403Z,20.48
2022-11-28T12:08:14.123Z,22.73
2022-11-28T12:14:30.511Z,21.98
2022-11-28T12:20:38.623Z,24.50
2022-11-28T12:26:46.233Z,23.23
2022-11-28T12:32:58.201Z,25.20
2022-11-28T12:39:05.690Z,63.00
2022-11-28T12:45:16.451Z,34.80
2022-11-28T12:51:24.631Z,62.40
2022-11-28T12:57:33.421Z,22.67
2022-11-28T13:03:42.250Z,22.65
2022-11-28T13:09:50.985Z,21.70
2022-11-28T13:16:00.404Z,21.25
2022-11-28T13:22:07.200Z,24.33
2022-11-28T13:28:15.134Z,21.70
2022-11-28T13:34:19.925Z,21.30
2022-11-28T13:40:26.868Z,23.50
2022-11-28T13:46:31.844Z,18.98
2022-11-28T13:52:43.379Z,20.23
2022-11-28T13:58:49.457Z,20.88
2022-11-28T14:04:54.294Z,18.08
2022-11-28T14:11:07.262Z,19.58
2022-11-28T14:17:17.552Z,16.10
2022-11-28T14:23:27.238Z,16.20
2022-11-28T14:29:38.843Z,20.23
2022-11-28T14:36:00.630Z,14.75
2022-11-28T14:49:32.342Z,15.68
2022-11-28T14:55:35.743Z,18.67
2022-11-28T15:01:47.194Z,18.92
2022-11-28T15:08:01.558Z,18.70
2022-11-28T15:14:10.058Z,15.90
2022-11-28T15:20:20.002Z,22.08
2022-11-28T15:26:24.904Z,21.55
2022-11-28T15:32:29.184Z,17.98
2022-11-28T15:38:34.000Z,19.67
2022-11-28T15:44:37.774Z,20.17
2022-11-28T15:50:51.295Z,26.45
2022-11-28T15:57:05.302Z,26.67
2022-11-28T16:03:09.112Z,22.98
2022-11-28T16:09:26.819Z,21.88
2022-11-28T16:15:32.132Z,17.35
2022-11-28T16:21:37.854Z,15.75
2022-11-28T16:27:42.622Z,20.98
2022-11-28T16:33:47.921Z,19.50
2022-11-28T16:40:00.663Z,31.88
2022-11-28T16:46:06.495Z,19.88
2022-11-28T16:52:30.803Z,16.17
2022-11-28T16:58:35.526Z,17.98
2022-11-28T17:04:39.546Z,26.25
2022-11-28T17:10:43.019Z,28.15
2022-11-28T17:16:48.404Z,25.90
2022-11-28T17:22:54.431Z,26.65
2022-11-28T17:28:58.976Z,17.15
2022-11-28T17:35:04.210Z,22.38
2022-11-28T17:41:08.955Z,23.15
2022-11-28T17:47:12.450Z,24.35
2022-11-28T17:53:18.188Z,22.20
2022-11-28T17:59:24.275Z,26.75
2022-11-28T18:05:27.779Z,32.08
2022-11-28T18:11:32.501Z,30.48
2022-11-28T18:17:35.889Z,25.23
2022-11-28T18:23:39.699Z,22.75
2022-11-28T18:29:45.123Z,25.73
2022-11-28T18:35:48.759Z,28.55
2022-11-28T18:41:52.262Z,36.85
2022-11-28T18:48:00.230Z,58.03
2022-11-28T18:54:05.202Z,33.47
2022-11-28T19:00:09.621Z,26.83
2022-11-28T19:06:14.498Z,29.05
2022-11-28T19:12:19.099Z,24.48
2022-11-28T19:18:22.523Z,21.17
2022-11-28T19:24:27.322Z,24.38
2022-11-28T19:30:30.670Z,29.48
2022-11-28T19:36:34.856Z,24.42
2022-11-28T19:42:39.721Z,23.73
2022-11-28T19:48:43.752Z,25.13
2022-11-28T19:54:47.271Z,24.88
2022-11-28T20:00:52.387Z,24.15
2022-11-28T20:06:55.847Z,17.17
2022-11-28T20:12:59.553Z,22.25
2022-11-28T20:19:04.570Z,23.02
2022-11-28T20:25:08.591Z,19.38
2022-11-28T20:31:18.579Z,37.13
2022-11-28T20:37:23.685Z,23.30
2022-11-28T20:43:27.076Z,21.70
2022-11-28T20:49:30.464Z,31.97
2022-11-28T20:55:35.353Z,18.38
2022-11-28T21:01:38.973Z,19.30
2022-11-28T21:07:42.399Z,33.47
2022-11-28T21:13:48.062Z,29.30
2022-11-28T21:19:51.466Z,26.88
2022-11-28T21:25:54.838Z,29.67
2022-11-28T21:31:59.653Z,28.35
2022-11-28T21:38:03.069Z,24.05
2022-11-28T21:44:06.526Z,35.90
2022-11-28T21:50:11.924Z,66.15
2022-11-28T21:56:15.345Z,54.97
2022-11-28T22:02:19.301Z,47.22
2022-11-28T22:08:24.099Z,38.65
2022-11-28T22:14:36.388Z,29.42
2022-11-28T22:20:43.569Z,42.35
2022-11-28T22:26:49.408Z,28.52
2022-11-28T22:32:53.000Z,48.70
2022-11-28T22:38:56.914Z,52.72
2022-11-28T22:45:01.666Z,60.20
2022-11-28T22:51:08.407Z,30.98
2022-11-28T22:57:11.739Z,17.38
2022-11-28T23:03:16.682Z,15.90
2022-11-28T23:09:20.248Z,23.45
2022-11-28T23:15:23.770Z,36.70
2022-11-28T23:21:30.852Z,32.75
2022-11-28T23:27:34.200Z,26.75
2022-11-28T23:33:37.772Z,44.45
2022-11-28T23:39:42.474Z,36.28
2022-11-28T23:45:45.879Z,33.40
2022-11-28T23:51:49.343Z,39.72
2022-11-28T23:57:54.117Z,23.08
